Time;durP1;ratioP1;P1;durP2;ratioP2;P2;SDS_P1;SDS_P2;PMS_P1;PMS_P2;Temp;Humidity;BMP_temperature;BMP_pressure;BME280_temperature;BME280_humidity;BME280_pressure;Samples;Min_cycle;Max_cycle;Signal;HPM_P1;HPM_P2
2022/10/12 00:01:51;;;;;;;1.30;1.20;;;19.70;60.70;;;;;;5063549;28;20013;-69
2022/10/12 00:04:17;;;;;;;1.65;1.42;;;19.60;60.70;;;;;;5063187;28;20063;-69
2022/10/12 00:06:42;;;;;;;1.33;1.20;;;19.60;60.60;;;;;;5063487;28;20309;-69
2022/10/12 00:09:08;;;;;;;1.17;1.00;;;19.70;60.70;;;;;;5063412;28;20340;-67
2022/10/12 00:11:34;;;;;;;1.00;0.90;;;19.70;60.70;;;;;;5063415;28;20036;-68
2022/10/12 00:14:00;;;;;;;1.17;1.02;;;19.70;60.70;;;;;;5063346;28;20194;-68
2022/10/12 00:16:30;;;;;;;1.25;1.15;;;19.70;60.70;;;;;;5063191;28;20028;-68
2022/10/12 00:18:57;;;;;;;1.20;1.10;;;19.60;60.70;;;;;;5063401;28;20031;-68
2022/10/12 00:21:25;;;;;;;1.13;1.02;;;19.70;60.70;;;;;;5063370;28;20024;-68
2022/10/12 00:23:50;;;;;;;1.52;1.08;;;19.70;60.70;;;;;;5063313;28;20020;-68
2022/10/12 00:26:20;;;;;;;1.17;1.08;;;19.70;60.70;;;;;;5063279;28;20080;-69
2022/10/12 00:28:46;;;;;;;1.50;1.30;;;19.70;60.70;;;;;;5063252;28;20040;-68
2022/10/12 00:31:14;;;;;;;1.25;1.10;;;19.70;60.70;;;;;;5063221;28;20024;-68
2022/10/12 00:33:40;;;;;;;1.17;1.08;;;19.60;60.70;;;;;;5063183;28;20062;-68
2022/10/12 00:36:15;;;;;;;1.00;0.90;;;19.60;60.70;;;;;;5063247;28;20080;-68
2022/10/12 00:38:41;;;;;;;1.25;1.15;;;19.70;60.80;;;;;;5065304;28;20461;-68
2022/10/12 00:41:07;;;;;;;1.40;1.30;;;19.60;60.70;;;;;;5067255;28;20021;-69
2022/10/12 00:43:40;;;;;;;1.33;1.23;;;19.60;60.70;;;;;;5067233;28;20025;-69
2022/10/12 00:46:15;;;;;;;1.20;1.10;;;19.60;60.70;;;;;;5067204;28;20021;-68
2022/10/12 00:48:42;;;;;;;1.30;1.20;;;19.60;60.70;;;;;;5067132;28;20304;-68
2022/10/12 00:51:08;;;;;;;1.05;0.95;;;19.60;60.70;;;;;;5067055;28;20020;-68
2022/10/12 00:53:39;;;;;;;1.35;1.20;;;19.60;60.70;;;;;;5066934;28;20021;-68
2022/10/12 00:56:10;;;;;;;1.58;1.48;;;19.60;60.70;;;;;;5067023;28;20340;-69
2022/10/12 00:58:36;;;;;;;0.98;0.95;;;19.60;60.70;;;;;;5066951;28;20063;-68
2022/10/12 01:01:04;;;;;;;1.10;1.00;;;19.60;60.70;;;;;;5066847;28;20013;-69
2022/10/12 01:03:31;;;;;;;1.52;1.20;;;19.60;60.70;;;;;;5066805;28;20060;-69
2022/10/12 01:05:57;;;;;;;1.20;1.10;;;19.60;60.70;;;;;;5065654;28;20190;-69
2022/10/12 01:08:23;;;;;;;1.10;1.00;;;19.60;60.70;;;;;;5066698;28;20024;-69
2022/10/12 01:10:49;;;;;;;1.33;1.23;;;19.60;60.70;;;;;;5066696;28;20025;-69
2022/10/12 01:13:15;;;;;;;1.33;1.20;;;19.60;60.70;;;;;;5066582;28;20079;-69
2022/10/12 01:16:07;;;;;;;1.30;1.20;;;19.60;60.70;;;;;;5066598;28;20078;-69
2022/10/12 01:18:42;;;;;;;0.95;0.90;;;19.60;60.70;;;;;;5062507;28;20064;-69
2022/10/12 01:21:08;;;;;;;1.20;1.10;;;19.60;60.70;;;;;;5066485;28;20241;-68
2022/10/12 01:23:43;;;;;;;1.70;1.42;;;19.60;60.70;;;;;;5066432;28;20032;-68
2022/10/12 01:27:03;;;;;;;1.48;1.10;;;19.60;60.80;;;;;;5066417;28;20051;-67
2022/10/12 01:30:04;;;;;;;1.63;1.48;;;19.60;60.70;;;;;;5044463;28;20030;-68
2022/10/12 01:33:03;;;;;;;1.23;1.13;;;19.60;60.70;;;;;;5066318;28;20017;-68
2022/10/12 01:35:44;;;;;;;1.95;1.48;;;19.60;60.70;;;;;;5066169;28;20303;-69
2022/10/12 01:38:31;;;;;;;1.95;1.25;;;19.60;60.80;;;;;;5066152;28;20013;-68
2022/10/12 01:41:12;;;;;;;1.42;1.33;;;19.60;60.70;;;;;;5066188;28;20013;-69
2022/10/12 01:43:40;;;;;;;1.48;1.17;;;19.60;60.70;;;;;;5066096;28;20021;-68
2022/10/12 01:46:15;;;;;;;;;;;19.60;60.70;;;;;;5066467;28;20217;-69
2022/10/12 01:48:45;;;;;;;1.70;1.15;;;19.60;60.70;;;;;;5065984;28;19907;-68
2022/10/12 01:51:15;;;;;;;1.10;0.95;;;19.60;60.70;;;;;;5065233;28;20106;-68
2022/10/12 01:54:02;;;;;;;2.00;1.33;;;19.60;60.70;;;;;;5065793;28;20016;-68
2022/10/12 01:56:33;;;;;;;1.23;1.13;;;19.60;60.70;;;;;;5065824;28;20021;-68
2022/10/12 01:59:22;;;;;;;1.13;1.02;;;19.50;60.70;;;;;;5065818;28;20332;-68
2022/10/12 02:02:42;;;;;;;0.93;0.93;;;19.60;60.70;;;;;;5062726;28;20040;-68
2022/10/12 02:05:34;;;;;;;1.65;1.55;;;19.60;60.70;;;;;;5043786;28;20333;-68
2022/10/12 02:08:21;;;;;;;1.73;1.27;;;19.60;60.70;;;;;;5065179;28;20059;-68
2022/10/12 02:11:14;;;;;;;1.35;1.25;;;19.50;60.70;;;;;;5065595;28;20332;-68
2022/10/12 02:13:51;;;;;;;1.63;1.35;;;19.50;60.70;;;;;;5064464;28;20249;-67
2022/10/12 02:16:21;;;;;;;1.95;1.10;;;19.50;60.70;;;;;;5064926;28;20021;-68
2022/10/12 02:18:50;;;;;;;1.60;1.50;;;19.50;60.70;;;;;;5065448;28;20040;-69
2022/10/12 02:21:20;;;;;;;1.30;0.95;;;19.50;60.70;;;;;;5065366;28;20024;-68
2022/10/12 02:23:49;;;;;;;1.20;1.10;;;19.50;60.70;;;;;;5065318;28;20083;-69
2022/10/12 02:26:16;;;;;;;1.42;1.17;;;19.50;60.70;;;;;;5065350;28;20020;-69
2022/10/12 02:28:43;;;;;;;1.10;1.00;;;19.50;60.80;;;;;;5065292;28;20016;-68
2022/10/12 02:31:36;;;;;;;1.20;1.10;;;19.50;60.70;;;;;;5065225;28;20021;-69
2022/10/12 02:34:20;;;;;;;1.42;1.33;;;19.50;60.70;;;;;;5065075;28;20038;-70
2022/10/12 02:37:05;;;;;;;1.00;1.00;;;19.50;60.80;;;;;;5063992;28;20032;-70
2022/10/12 02:39:53;;;;;;;1.30;1.20;;;19.50;60.70;;;;;;5065066;28;20048;-69
2022/10/12 02:42:28;;;;;;;1.15;1.05;;;19.50;61.40;;;;;;5065038;28;20280;-69
2022/10/12 02:44:57;;;;;;;1.25;0.90;;;19.50;60.70;;;;;;5064965;28;20020;-67
2022/10/12 02:47:25;;;;;;;1.23;1.13;;;19.50;60.70;;;;;;5064858;28;20308;-68
2022/10/12 02:49:52;;;;;;;2.05;1.35;;;19.50;60.70;;;;;;5064878;28;20247;-68
2022/10/12 02:52:18;;;;;;;1.35;1.25;;;19.50;60.70;;;;;;5064806;28;20025;-69
2022/10/12 02:54:44;;;;;;;1.60;1.50;;;19.50;61.40;;;;;;5064689;28;20063;-69
2022/10/12 02:57:10;;;;;;;1.20;1.10;;;19.50;60.70;;;;;;5064656;28;20036;-68
2022/10/12 02:59:36;;;;;;;1.55;1.40;;;19.50;60.70;;;;;;5064631;28;20076;-68
2022/10/12 03:02:01;;;;;;;1.33;1.20;;;19.50;60.70;;;;;;5063655;28;20021;-70
2022/10/12 03:04:27;;;;;;;1.20;1.10;;;19.50;60.70;;;;;;5064545;28;20044;-68
2022/10/12 03:06:53;;;;;;;1.60;1.50;;;19.50;60.70;;;;;;5064473;28;20092;-68
2022/10/12 03:09:18;;;;;;;1.20;1.10;;;19.50;60.70;;;;;;5064418;28;20021;-68
2022/10/12 03:11:44;;;;;;;1.30;1.20;;;19.50;60.70;;;;;;5064440;28;20328;-68
2022/10/12 03:14:11;;;;;;;1.45;1.13;;;19.50;60.70;;;;;;5064283;28;20312;-69
2022/10/12 03:16:37;;;;;;;1.33;1.23;;;19.50;60.70;;;;;;5064141;28;20044;-68
2022/10/12 03:19:03;;;;;;;1.45;1.20;;;19.50;60.70;;;;;;5064285;28;20080;-68
2022/10/12 03:21:28;;;;;;;1.45;1.35;;;19.40;60.60;;;;;;5064197;28;20032;-68
2022/10/12 03:23:54;;;;;;;1.10;1.00;;;19.50;60.70;;;;;;5064179;28;20012;-68
2022/10/12 03:26:20;;;;;;;1.35;1.25;;;19.50;60.70;;;;;;5064132;28;20292;-69
2022/10/12 03:28:46;;;;;;;1.30;1.20;;;19.40;60.60;;;;;;5064096;28;20247;-68
2022/10/12 03:31:11;;;;;;;1.23;1.13;;;19.40;60.60;;;;;;5064059;28;20028;-68
2022/10/12 03:33:37;;;;;;;1.15;1.05;;;19.40;61.30;;;;;;5063927;28;20013;-68
2022/10/12 03:36:03;;;;;;;1.50;1.20;;;19.40;60.70;;;;;;5062831;28;20047;-68
2022/10/12 03:38:29;;;;;;;1.35;1.25;;;19.40;60.70;;;;;;5063958;28;20067;-68
2022/10/12 03:40:56;;;;;;;1.15;1.05;;;19.40;60.70;;;;;;5063890;28;20115;-68
2022/10/12 03:43:22;;;;;;;1.42;1.33;;;19.40;60.70;;;;;;5063865;28;20012;-68
2022/10/12 03:45:48;;;;;;;1.45;1.35;;;19.40;60.70;;;;;;5062654;28;20205;-68
2022/10/12 03:48:14;;;;;;;1.20;1.10;;;19.40;60.70;;;;;;5063784;28;20016;-68
2022/10/12 03:50:40;;;;;;;1.23;1.13;;;19.40;60.70;;;;;;5063715;28;20021;-68
2022/10/12 03:53:05;;;;;;;1.58;1.48;;;19.40;60.70;;;;;;5063707;28;20209;-67
2022/10/12 03:55:32;;;;;;;1.40;1.30;;;19.40;60.70;;;;;;5063626;28;20284;-67
2022/10/12 03:57:58;;;;;;;1.27;1.17;;;19.40;60.70;;;;;;5063627;28;20017;-68
2022/10/12 04:00:24;;;;;;;1.85;1.30;;;19.40;60.70;;;;;;5063592;28;20028;-68
2022/10/12 04:02:50;;;;;;;1.13;1.02;;;19.40;60.70;;;;;;5063593;28;20076;-68
2022/10/12 04:05:16;;;;;;;1.08;0.98;;;19.40;60.70;;;;;;5063526;28;20032;-69
2022/10/12 04:07:41;;;;;;;1.33;1.23;;;19.40;60.70;;;;;;5063488;28;20024;-67
2022/10/12 04:10:07;;;;;;;1.30;1.20;;;19.40;60.70;;;;;;5063486;28;20055;-68
2022/10/12 04:12:36;;;;;;;1.63;1.48;;;19.40;60.70;;;;;;5063116;28;20020;-69
2022/10/12 04:15:02;;;;;;;;;;;19.40;60.70;;;;;;5063807;28;20025;-68
2022/10/12 04:17:28;;;;;;;1.40;1.30;;;19.40;60.70;;;;;;5063257;28;19986;-68
2022/10/12 04:19:53;;;;;;;1.45;1.35;;;19.40;61.30;;;;;;5063370;28;20248;-68
2022/10/12 04:22:19;;;;;;;1.40;1.27;;;19.40;60.70;;;;;;5063380;28;20021;-69
2022/10/12 04:24:45;;;;;;;1.38;1.27;;;19.40;60.70;;;;;;5063364;28;20453;-68
2022/10/12 04:27:11;;;;;;;1.55;1.45;;;19.40;60.70;;;;;;5063366;28;20076;-69
2022/10/12 04:29:36;;;;;;;1.40;1.30;;;19.40;61.30;;;;;;5063366;28;20062;-69
2022/10/12 04:32:02;;;;;;;1.25;1.15;;;19.40;60.70;;;;;;5063278;28;20066;-69
2022/10/12 04:34:28;;;;;;;1.38;1.27;;;19.40;60.70;;;;;;5063146;28;20024;-69
2022/10/12 04:36:53;;;;;;;1.27;1.17;;;19.40;60.80;;;;;;5063236;28;20182;-68
2022/10/12 04:39:19;;;;;;;1.20;1.10;;;19.40;60.80;;;;;;5063186;28;20036;-68
2022/10/12 04:41:45;;;;;;;1.20;1.10;;;19.40;60.80;;;;;;5063167;28;20076;-69
2022/10/12 04:44:10;;;;;;;1.20;1.10;;;19.40;60.80;;;;;;5063150;28;20043;-68
2022/10/12 04:46:36;;;;;;;1.65;1.55;;;19.40;60.80;;;;;;5063147;28;20032;-68
2022/10/12 04:49:02;;;;;;;1.63;1.30;;;19.40;60.80;;;;;;5063088;28;20025;-69
2022/10/12 04:51:28;;;;;;;1.23;1.13;;;19.30;60.70;;;;;;5063082;28;20083;-69
2022/10/12 04:53:53;;;;;;;1.52;1.20;;;19.30;60.70;;;;;;5062964;28;20028;-68
2022/10/12 04:56:19;;;;;;;2.08;1.52;;;19.40;60.80;;;;;;5063065;28;20021;-69
2022/10/12 04:58:45;;;;;;;1.30;1.15;;;19.30;60.80;;;;;;5063009;28;20017;-69
2022/10/12 05:01:11;;;;;;;1.20;1.10;;;19.30;60.80;;;;;;5062974;28;20040;-69
2022/10/12 05:03:37;;;;;;;1.13;1.05;;;19.30;60.80;;;;;;5062956;28;20085;-69
2022/10/12 05:06:02;;;;;;;1.67;1.30;;;19.30;60.80;;;;;;5062922;28;20021;-69
2022/10/12 05:08:28;;;;;;;1.67;1.52;;;19.30;60.80;;;;;;5062933;28;20084;-69
2022/10/12 05:10:57;;;;;;;1.58;1.48;;;19.30;60.80;;;;;;5062895;28;20025;-68
2022/10/12 05:13:22;;;;;;;1.30;1.20;;;19.30;60.70;;;;;;5062807;28;20020;-69
2022/10/12 05:15:48;;;;;;;1.30;1.20;;;19.30;60.70;;;;;;5062848;28;20013;-69
2022/10/12 05:18:14;;;;;;;1.40;1.30;;;19.30;60.70;;;;;;5062713;28;20079;-69
2022/10/12 05:20:40;;;;;;;1.50;1.40;;;19.30;60.70;;;;;;5062831;28;20023;-68
2022/10/12 05:23:05;;;;;;;1.50;1.38;;;19.30;60.70;;;;;;5062785;28;20021;-68
2022/10/12 05:25:31;;;;;;;1.50;1.40;;;19.30;60.80;;;;;;5064685;28;20025;-68
2022/10/12 05:27:57;;;;;;;1.45;1.35;;;19.30;60.80;;;;;;5066419;28;20317;-69
2022/10/12 05:30:23;;;;;;;1.20;1.10;;;19.30;60.80;;;;;;5066361;28;20024;-68
2022/10/12 05:32:49;;;;;;;1.33;1.23;;;19.30;60.80;;;;;;5065187;28;20048;-68
2022/10/12 05:35:14;;;;;;;1.30;1.20;;;19.30;60.80;;;;;;5066182;28;20017;-69
2022/10/12 05:37:40;;;;;;;1.30;1.20;;;19.30;60.80;;;;;;5066216;28;20016;-69
2022/10/12 05:40:06;;;;;;;1.90;1.58;;;19.30;60.70;;;;;;5066156;28;20023;-69
2022/10/12 05:42:33;;;;;;;1.90;1.17;;;19.30;60.70;;;;;;5066137;28;20024;-69
2022/10/12 05:44:59;;;;;;;1.20;1.10;;;19.30;60.70;;;;;;5066107;28;20366;-69
2022/10/12 05:47:25;;;;;;;1.67;1.40;;;19.30;60.70;;;;;;5066033;28;20106;-69
2022/10/12 05:49:51;;;;;;;1.40;1.30;;;19.30;60.70;;;;;;5065983;28;20025;-69
2022/10/12 05:52:17;;;;;;;1.50;1.40;;;19.30;61.40;;;;;;5065953;28;20025;-69
2022/10/12 05:54:42;;;;;;;1.63;1.52;;;19.30;60.70;;;;;;5065821;28;20024;-69
2022/10/12 05:57:08;;;;;;;1.40;1.30;;;19.30;60.70;;;;;;5065856;28;20017;-68
2022/10/12 05:59:34;;;;;;;1.50;1.40;;;19.30;60.60;;;;;;5065776;28;20021;-69
2022/10/12 06:02:00;;;;;;;1.45;1.33;;;19.30;60.60;;;;;;5065768;28;20076;-69
2022/10/12 06:04:26;;;;;;;1.27;1.17;;;19.30;60.60;;;;;;5065705;28;20212;-69
2022/10/12 06:06:51;;;;;;;1.25;1.10;;;19.40;60.80;;;;;;5065669;28;20024;-68
2022/10/12 06:09:18;;;;;;;2.53;1.67;;;19.30;61.30;;;;;;5065602;28;20359;-70
2022/10/12 06:11:43;;;;;;;1.92;1.35;;;19.30;60.70;;;;;;5065616;28;20194;-68
2022/10/12 06:14:09;;;;;;;1.48;1.38;;;19.30;60.70;;;;;;5065534;28;20017;-68
2022/10/12 06:16:35;;;;;;;1.55;1.40;;;19.30;60.60;;;;;;5065338;28;20041;-69
2022/10/12 06:19:00;;;;;;;1.60;1.48;;;19.30;60.70;;;;;;5065510;28;20119;-70
2022/10/12 06:21:26;;;;;;;1.38;1.27;;;19.30;60.70;;;;;;5065458;28;20416;-69
2022/10/12 06:23:52;;;;;;;1.25;1.15;;;19.30;60.70;;;;;;5065388;28;20309;-69
2022/10/12 06:26:18;;;;;;;1.65;1.30;;;19.30;60.60;;;;;;5065315;28;20021;-69
2022/10/12 06:28:43;;;;;;;1.50;1.40;;;19.30;60.70;;;;;;5065256;28;20081;-69
2022/10/12 06:31:10;;;;;;;1.48;1.38;;;19.30;60.80;;;;;;5065238;28;20331;-68
2022/10/12 06:33:35;;;;;;;1.75;1.20;;;19.30;60.70;;;;;;5065083;28;20308;-68
2022/10/12 06:36:02;;;;;;;1.40;1.30;;;19.30;60.70;;;;;;5064951;28;20021;-69
2022/10/12 06:38:28;;;;;;;1.42;1.33;;;19.30;60.60;;;;;;5065098;28;20015;-68
2022/10/12 06:40:54;;;;;;;4.03;1.40;;;19.30;60.60;;;;;;5065029;28;20025;-69
2022/10/12 06:43:21;;;;;;;1.42;1.33;;;19.30;60.60;;;;;;5064987;28;20088;-68
2022/10/12 06:45:47;;;;;;;1.15;1.08;;;19.30;60.60;;;;;;5064928;28;20024;-68
2022/10/12 06:48:13;;;;;;;1.90;1.50;;;19.30;60.60;;;;;;5064920;28;20016;-68
2022/10/12 06:50:39;;;;;;;1.42;1.33;;;19.40;60.60;;;;;;5064862;28;20020;-69
2022/10/12 06:53:05;;;;;;;1.20;1.05;;;19.40;60.60;;;;;;5064814;28;20017;-68
2022/10/12 06:55:31;;;;;;;1.60;1.50;;;19.40;60.60;;;;;;5064714;28;20024;-69
2022/10/12 06:57:56;;;;;;;1.45;1.35;;;19.40;60.60;;;;;;5063541;28;20307;-69
2022/10/12 07:00:22;;;;;;;1.42;1.33;;;19.40;60.60;;;;;;5064662;28;20058;-68
2022/10/12 07:02:49;;;;;;;1.60;1.50;;;19.40;60.50;;;;;;5064612;28;20020;-68
2022/10/12 07:05:15;;;;;;;1.63;1.40;;;19.40;60.50;;;;;;5064606;28;20017;-69
2022/10/12 07:07:42;;;;;;;18.02;3.08;;;19.40;60.60;;;;;;5064508;28;20057;-69
2022/10/12 07:10:08;;;;;;;15.93;2.80;;;19.30;60.70;;;;;;5064465;28;20067;-67
2022/10/12 07:12:36;;;;;;;7.05;2.47;;;19.40;60.90;;;;;;5064411;28;20246;-66
2022/10/12 07:15:02;;;;;;;14.05;2.88;;;19.40;61.20;;;;;;5064264;28;20029;-66
2022/10/12 07:17:28;;;;;;;7.20;1.70;;;19.40;61.00;;;;;;5064083;28;20048;-64
2022/10/12 07:19:54;;;;;;;5.93;1.98;;;19.40;60.90;;;;;;5064272;28;20264;-64
2022/10/12 07:22:19;;;;;;;6.93;1.60;;;19.40;60.80;;;;;;5056963;28;20017;-62
2022/10/12 07:24:45;;;;;;;3.22;1.38;;;19.50;60.90;;;;;;5054542;28;20029;-67
2022/10/12 07:27:11;;;;;;;7.10;1.73;;;19.50;60.80;;;;;;5044511;28;20017;-66
2022/10/12 07:29:37;;;;;;;1.55;1.45;;;19.50;60.80;;;;;;5054101;28;20076;-72
2022/10/12 07:32:04;;;;;;;4.68;1.60;;;19.50;60.70;;;;;;5060059;28;20076;-70
2022/10/12 07:34:30;;;;;;;6.25;1.75;;;19.50;60.80;;;;;;5063445;28;20300;-69
2022/10/12 07:36:57;;;;;;;14.27;3.03;;;19.50;60.80;;;;;;5063601;28;20024;-66
2022/10/12 07:39:23;;;;;;;3.63;1.33;;;19.50;60.80;;;;;;5061827;28;20027;-68
2022/10/12 07:41:50;;;;;;;4.75;1.60;;;19.50;61.00;;;;;;5055725;28;20029;-66
2022/10/12 07:44:17;;;;;;;5.68;1.60;;;19.50;60.80;;;;;;5054157;28;20013;-70
2022/10/12 07:46:44;;;;;;;9.68;1.83;;;19.50;60.90;;;;;;5044519;28;20045;-69
2022/10/12 07:49:12;;;;;;;4.18;1.83;;;19.50;60.90;;;;;;5042897;28;20021;-65
2022/10/12 07:51:38;;;;;;;14.73;2.30;;;19.50;61.00;;;;;;5043374;28;20025;-65
2022/10/12 07:54:04;;;;;;;8.32;2.00;;;19.40;60.90;;;;;;5042683;28;20048;-67
2022/10/12 07:56:30;;;;;;;25.13;3.08;;;19.50;61.00;;;;;;5050874;28;20313;-68
2022/10/12 07:58:57;;;;;;;24.17;3.92;;;19.40;61.00;;;;;;5059901;28;20209;-66
2022/10/12 08:01:26;;;;;;;11.02;2.05;;;19.40;61.10;;;;;;5062221;28;20027;-69
2022/10/12 08:03:53;;;;;;;13.30;6.20;;;19.40;61.00;;;;;;5052907;28;20025;-67
2022/10/12 08:06:21;;;;;;;22.83;5.50;;;19.40;61.20;;;;;;5049323;28;20067;-67
2022/10/12 08:08:48;;;;;;;11.65;3.28;;;19.40;61.30;;;;;;5042956;28;20045;-68
2022/10/12 08:11:14;;;;;;;10.63;3.05;;;19.40;61.20;;;;;;5048319;28;20208;-67
2022/10/12 08:13:40;;;;;;;11.15;6.38;;;19.40;61.10;;;;;;5046503;28;20017;-67
2022/10/12 08:16:10;;;;;;;18.70;4.72;;;19.40;61.60;;;;;;5053928;28;20029;-67
2022/10/12 08:18:36;;;;;;;12.48;3.70;;;19.40;61.60;;;;;;5062719;28;20045;-69
2022/10/12 08:21:07;;;;;;;45.13;5.65;;;19.40;61.90;;;;;;5063262;28;20021;-68
2022/10/12 08:23:34;;;;;;;48.65;6.45;;;19.50;61.20;;;;;;5063128;28;20013;-67
2022/10/12 08:26:01;;;;;;;13.00;6.00;;;19.50;61.20;;;;;;5063206;28;20017;-68
2022/10/12 08:28:27;;;;;;;25.60;5.20;;;19.50;61.80;;;;;;5063222;28;20017;-68
2022/10/12 08:30:52;;;;;;;22.95;3.75;;;19.40;61.30;;;;;;5063259;28;20020;-70
2022/10/12 08:33:19;;;;;;;25.20;4.68;;;19.50;61.30;;;;;;5063206;28;20044;-67
2022/10/12 08:35:46;;;;;;;42.30;5.63;;;19.40;61.30;;;;;;5063168;28;20021;-67
2022/10/12 08:38:13;;;;;;;14.90;7.55;;;19.40;61.30;;;;;;5063171;28;20020;-68
2022/10/12 08:40:56;;;;;;;19.83;5.97;;;19.40;62.20;;;;;;5061369;28;20048;-68
2022/10/12 08:43:45;;;;;;;17.92;4.88;;;19.40;61.90;;;;;;5050947;28;20032;-67
2022/10/12 08:46:11;;;;;;;11.95;7.60;;;19.40;61.40;;;;;;5043224;28;20041;-67
2022/10/12 08:49:09;;;;;;;17.35;7.97;;;19.40;61.90;;;;;;5045671;28;20017;-67
2022/10/12 08:51:44;;;;;;;15.18;8.48;;;19.30;61.70;;;;;;5056520;28;20086;-68
2022/10/12 08:54:16;;;;;;;25.60;7.38;;;19.30;62.20;;;;;;5062849;28;20021;-67
2022/10/12 08:56:43;;;;;;;16.42;9.30;;;19.30;62.00;;;;;;5057804;28;20076;-68
2022/10/12 08:59:12;;;;;;;31.08;9.35;;;19.30;62.30;;;;;;5051359;28;20128;-69
2022/10/12 09:02:03;;;;;;;44.15;9.45;;;19.20;62.20;;;;;;5046787;28;20396;-68
2022/10/12 09:05:07;;;;;;;35.70;7.53;;;19.30;62.20;;;;;;5052215;28;20025;-68
2022/10/12 09:07:48;;;;;;;47.03;9.10;;;19.30;62.00;;;;;;5043197;28;20033;-65
2022/10/12 09:10:39;;;;;;;36.90;7.82;;;19.30;62.00;;;;;;5060928;28;20043;-67
2022/10/12 09:13:44;;;;;;;46.17;7.93;;;19.30;61.80;;;;;;5065307;28;20017;-66
2022/10/12 09:16:22;;;;;;;36.78;7.97;;;19.40;61.80;;;;;;5065889;28;20091;-65
2022/10/12 09:18:56;;;;;;;44.92;7.13;;;19.40;61.70;;;;;;5066019;28;20032;-64
2022/10/12 09:21:25;;;;;;;31.60;6.70;;;19.40;61.70;;;;;;5065114;28;20013;-64
2022/10/12 09:23:51;;;;;;;;;;;19.40;61.70;;;;;;5066207;28;20035;-63
2022/10/12 09:26:18;;;;;;;31.42;6.25;;;19.40;61.60;;;;;;5065680;28;19936;-65
2022/10/12 09:28:49;;;;;;;45.40;7.22;;;19.40;61.70;;;;;;5061808;28;20027;-64
2022/10/12 09:31:47;;;;;;;31.95;7.68;;;19.40;61.60;;;;;;5064648;28;20465;-65
2022/10/12 09:34:13;;;;;;;26.25;6.95;;;19.50;61.50;;;;;;5046105;28;20037;-65
2022/10/12 09:36:41;;;;;;;27.00;6.22;;;19.50;61.60;;;;;;5057500;28;20027;-69
2022/10/12 09:39:15;;;;;;;44.83;6.40;;;19.50;61.50;;;;;;5047757;28;20036;-65
2022/10/12 09:41:44;;;;;;;30.30;5.72;;;19.50;61.40;;;;;;5065670;28;20025;-66
2022/10/12 09:44:15;;;;;;;18.60;5.53;;;19.50;61.50;;;;;;5059141;28;20018;-65
2022/10/12 09:46:47;;;;;;;34.63;5.75;;;19.50;61.40;;;;;;5061000;28;20029;-67
2022/10/12 09:49:12;;;;;;;25.75;6.47;;;19.50;61.50;;;;;;5065869;28;20021;-66
2022/10/12 09:51:38;;;;;;;20.55;5.15;;;19.50;61.50;;;;;;5065243;28;20017;-67
2022/10/12 09:54:06;;;;;;;35.80;5.53;;;19.50;61.50;;;;;;5063067;28;20066;-67
2022/10/12 09:56:40;;;;;;;33.17;6.93;;;19.50;61.50;;;;;;5065514;28;20017;-66
2022/10/12 09:59:42;;;;;;;18.80;6.07;;;19.50;61.50;;;;;;5064263;28;20017;-66
2022/10/12 10:02:10;;;;;;;34.63;7.13;;;19.50;61.50;;;;;;5064723;28;20017;-68
2022/10/12 10:04:37;;;;;;;23.85;5.80;;;19.50;61.40;;;;;;5065779;28;20021;-66
2022/10/12 10:07:34;;;;;;;23.92;5.65;;;19.50;61.40;;;;;;5056580;28;20025;-68
2022/10/12 10:10:30;;;;;;;22.85;4.47;;;19.60;61.40;;;;;;5045055;28;20047;-69
2022/10/12 10:13:00;;;;;;;22.40;6.07;;;19.60;61.40;;;;;;5053786;28;20032;-66
2022/10/12 10:15:33;;;;;;;33.00;5.53;;;19.60;61.40;;;;;;5065088;28;20364;-67
2022/10/12 10:18:06;;;;;;;20.60;5.70;;;19.60;61.40;;;;;;5065136;28;20087;-67
2022/10/12 10:20:33;;;;;;;18.00;4.47;;;19.60;61.40;;;;;;5059614;28;20307;-69
2022/10/12 10:23:01;;;;;;;24.67;5.43;;;19.60;61.40;;;;;;5057578;28;20021;-68
2022/10/12 10:25:27;;;;;;;36.67;6.20;;;19.60;61.40;;;;;;5063290;28;20036;-69
2022/10/12 10:28:11;;;;;;;20.20;5.20;;;19.60;61.50;;;;;;5058396;28;20029;-67
2022/10/12 10:30:37;;;;;;;26.13;5.97;;;19.60;61.50;;;;;;5044926;28;20025;-56
2022/10/12 10:33:13;;;;;;;38.88;6.80;;;19.70;61.50;;;;;;5396079;23;20123;-65
2022/10/12 10:35:39;;;;;;;29.45;6.78;;;19.70;61.40;;;;;;4977257;28;20054;-67
2022/10/12 10:38:06;;;;;;;22.15;5.60;;;19.70;61.20;;;;;;4984442;28;20344;-64
2022/10/12 10:40:33;;;;;;;27.75;6.57;;;19.80;61.20;;;;;;4986038;28;20027;-66
2022/10/12 10:43:04;;;;;;;29.33;5.47;;;19.80;61.00;;;;;;4985976;28;20061;-66
2022/10/12 10:45:42;;;;;;;24.70;6.53;;;19.90;60.90;;;;;;4985977;28;20057;-66
2022/10/12 10:48:14;;;;;;;21.00;4.88;;;19.90;60.90;;;;;;4985536;28;20034;-65
2022/10/12 10:50:42;;;;;;;18.05;5.30;;;19.90;60.90;;;;;;4985932;28;20031;-66
2022/10/12 10:53:20;;;;;;;17.98;5.15;;;19.90;60.90;;;;;;4972467;28;20019;-65
2022/10/12 10:55:59;;;;;;;17.53;5.50;;;19.90;60.80;;;;;;4974325;28;20095;-64
2022/10/12 10:58:55;;;;;;;19.25;5.45;;;19.90;60.80;;;;;;4966303;29;20026;-65
2022/10/12 11:01:37;;;;;;;20.25;5.55;;;19.90;60.80;;;;;;4967543;28;20035;-65
2022/10/12 11:04:05;;;;;;;30.95;5.80;;;19.90;60.80;;;;;;4985630;28;20022;-64
2022/10/12 11:06:36;;;;;;;;;;;19.90;60.90;;;;;;4985466;28;20081;-64
2022/10/12 11:09:13;;;;;;;15.98;4.65;;;19.90;60.90;;;;;;4985529;28;19902;-64
2022/10/12 11:11:42;;;;;;;15.15;5.20;;;19.90;61.00;;;;;;4985752;28;20026;-65
2022/10/12 11:14:16;;;;;;;24.83;6.80;;;19.90;60.90;;;;;;4985578;28;20022;-65
2022/10/12 11:16:57;;;;;;;14.68;4.32;;;19.90;60.90;;;;;;4985254;28;20297;-66
2022/10/12 11:19:41;;;;;;;13.93;5.05;;;19.90;61.00;;;;;;4985377;28;20019;-65
2022/10/12 11:22:20;;;;;;;14.13;4.40;;;19.90;61.00;;;;;;4984686;28;20215;-67
2022/10/12 11:24:54;;;;;;;20.30;6.03;;;19.90;60.90;;;;;;4985140;28;20026;-66
2022/10/12 11:27:31;;;;;;;22.75;4.75;;;20.00;61.00;;;;;;4985138;28;20024;-65
2022/10/12 11:30:00;;;;;;;20.58;5.25;;;19.90;60.90;;;;;;4977266;28;20030;-65
2022/10/12 11:32:31;;;;;;;19.85;4.65;;;19.90;61.00;;;;;;4983165;28;20045;-65
2022/10/12 11:35:01;;;;;;;17.73;4.55;;;19.90;61.60;;;;;;4984886;28;20038;-64
2022/10/12 11:37:48;;;;;;;15.40;4.40;;;19.90;60.90;;;;;;4985229;28;20026;-66
2022/10/12 11:40:24;;;;;;;20.13;5.05;;;20.00;60.90;;;;;;4984964;28;20021;-64
2022/10/12 11:42:52;;;;;;;8.93;4.70;;;19.90;60.90;;;;;;4985137;28;20046;-64
2022/10/12 11:45:22;;;;;;;;;;;19.90;61.00;;;;;;4984720;28;20042;-63
2022/10/12 11:47:54;;;;;;;12.73;3.92;;;19.90;61.00;;;;;;4982542;28;20104;-66
2022/10/12 11:50:35;;;;;;;16.20;4.53;;;19.90;61.00;;;;;;4980356;28;20023;-65
2022/10/12 11:53:06;;;;;;;12.30;4.78;;;19.90;60.90;;;;;;4984816;28;20022;-63
2022/10/12 11:55:46;;;;;;;13.63;4.25;;;19.90;61.00;;;;;;4983899;28;20091;-65
2022/10/12 11:58:29;;;;;;;13.73;3.40;;;19.90;61.10;;;;;;4973432;28;20014;-64
2022/10/12 12:01:07;;;;;;;17.80;4.43;;;19.90;61.10;;;;;;4976050;28;20015;-65
2022/10/12 12:04:07;;;;;;;16.08;4.10;;;19.90;61.10;;;;;;4984879;28;20018;-65
2022/10/12 12:06:32;;;;;;;15.05;4.95;;;19.90;61.10;;;;;;4984659;28;20255;-65
2022/10/12 12:09:18;;;;;;;16.80;4.30;;;19.90;61.20;;;;;;4984397;28;20069;-65
2022/10/12 12:11:44;;;;;;;16.83;3.72;;;19.90;61.20;;;;;;4984503;28;20019;-66
2022/10/12 12:14:25;;;;;;;17.92;3.90;;;19.90;61.20;;;;;;4983785;28;20030;-67
2022/10/12 12:17:19;;;;;;;20.23;4.30;;;19.90;61.20;;;;;;4984474;28;20027;-64
2022/10/12 12:19:52;;;;;;;17.55;4.22;;;19.90;61.20;;;;;;4983834;28;20088;-66
2022/10/12 12:22:48;;;;;;;11.57;4.22;;;19.90;61.30;;;;;;4978459;28;20033;-67
2022/10/12 12:25:18;;;;;;;10.05;3.72;;;19.90;61.30;;;;;;4983653;28;20033;-66
2022/10/12 12:27:50;;;;;;;16.95;4.45;;;19.90;61.20;;;;;;4983010;28;20046;-65
2022/10/12 12:30:23;;;;;;;17.42;5.07;;;20.00;61.10;;;;;;4984373;28;20058;-65
2022/10/12 12:32:53;;;;;;;14.48;4.88;;;20.00;61.00;;;;;;4983626;28;20109;-65
2022/10/12 12:35:24;;;;;;;10.32;3.92;;;20.00;61.00;;;;;;4987312;28;20030;-65
2022/10/12 12:38:28;;;;;;;13.65;4.43;;;20.00;61.00;;;;;;4988160;28;20023;-65
2022/10/12 12:41:00;;;;;;;24.15;4.78;;;20.00;61.00;;;;;;4983729;28;20046;-66
2022/10/12 12:43:29;;;;;;;14.13;4.82;;;20.00;61.00;;;;;;4988137;28;20065;-64
2022/10/12 12:46:02;;;;;;;;;;;20.00;61.10;;;;;;4988594;28;20030;-65
2022/10/12 12:48:43;;;;;;;10.90;4.30;;;20.00;61.10;;;;;;4987524;28;19902;-65
2022/10/12 12:51:15;;;;;;;12.80;4.20;;;20.00;61.20;;;;;;4987953;28;20037;-64
2022/10/12 12:53:46;;;;;;;9.63;4.43;;;20.00;61.20;;;;;;4987936;28;20293;-64
2022/10/12 12:56:31;;;;;;;13.65;4.47;;;20.00;61.20;;;;;;4987252;28;20038;-65
2022/10/12 12:59:07;;;;;;;24.70;5.03;;;20.00;61.20;;;;;;4987692;28;20026;-65
2022/10/12 13:01:55;;;;;;;268.92;25.65;;;20.00;61.30;;;;;;4988027;28;20313;-65
2022/10/12 13:04:32;;;;;;;230.13;22.25;;;20.00;61.30;;;;;;4987380;28;20029;-66
2022/10/12 13:07:19;;;;;;;183.20;23.23;;;20.00;61.30;;;;;;4980543;28;20218;-67